sensor_id;sensor_type;location;lat;lon;timestamp;pressure;altitude;pressure_sealevel;temperature;humidity
75717;BME280;64333;50.138;14.332;2023-01-15T00:01:33;97098.09;;;7.30;89.20
75717;BME280;64333;50.138;14.332;2023-01-15T00:04:00;97082.81;;;7.27;89.53
75717;BME280;64333;50.138;14.332;2023-01-15T00:06:29;97084.50;;;7.28;89.27
75717;BME280;64333;50.138;14.332;2023-01-15T00:08:54;97071.69;;;7.28;89.26
75717;BME280;64333;50.138;14.332;2023-01-15T00:11:20;97058.66;;;7.31;88.81
75717;BME280;64333;50.138;14.332;2023-01-15T00:13:46;97067.47;;;7.42;88.38
75717;BME280;64333;50.138;14.332;2023-01-15T00:16:14;97067.34;;;7.45;88.13
75717;BME280;64333;50.138;14.332;2023-01-15T00:18:40;97079.03;;;7.51;87.46
75717;BME280;64333;50.138;14.332;2023-01-15T00:21:08;97069.34;;;7.56;87.50
75717;BME280;64333;50.138;14.332;2023-01-15T00:23:34;97071.94;;;7.56;86.89
75717;BME280;64333;50.138;14.332;2023-01-15T00:26:20;97059.50;;;7.64;86.55
75717;BME280;64333;50.138;14.332;2023-01-15T00:29:06;97058.78;;;7.62;87.04
75717;BME280;64333;50.138;14.332;2023-01-15T00:31:33;97052.53;;;7.66;87.47
75717;BME280;64333;50.138;14.332;2023-01-15T00:33:59;97053.88;;;7.73;87.34
75717;BME280;64333;50.138;14.332;2023-01-15T00:36:25;97052.66;;;7.80;86.71
75717;BME280;64333;50.138;14.332;2023-01-15T00:38:51;97048.28;;;7.82;86.14
75717;BME280;64333;50.138;14.332;2023-01-15T00:41:16;97055.81;;;7.85;87.09
75717;BME280;64333;50.138;14.332;2023-01-15T00:43:41;97052.50;;;7.83;86.17
75717;BME280;64333;50.138;14.332;2023-01-15T00:46:07;97039.00;;;7.79;87.77
75717;BME280;64333;50.138;14.332;2023-01-15T00:48:34;97044.06;;;7.81;87.62
75717;BME280;64333;50.138;14.332;2023-01-15T00:50:59;97044.63;;;7.86;86.88
75717;BME280;64333;50.138;14.332;2023-01-15T00:53:25;97035.25;;;7.85;86.57
75717;BME280;64333;50.138;14.332;2023-01-15T00:55:50;97033.09;;;7.93;87.27
75717;BME280;64333;50.138;14.332;2023-01-15T00:58:15;97030.63;;;7.91;89.00
75717;BME280;64333;50.138;14.332;2023-01-15T01:00:41;97032.28;;;7.92;88.75
75717;BME280;64333;50.138;14.332;2023-01-15T01:03:06;97021.91;;;7.94;89.12
75717;BME280;64333;50.138;14.332;2023-01-15T01:05:31;97014.19;;;7.94;88.47
75717;BME280;64333;50.138;14.332;2023-01-15T01:07:57;97020.19;;;7.94;89.81
75717;BME280;64333;50.138;14.332;2023-01-15T01:10:24;97020.50;;;7.88;92.36
75717;BME280;64333;50.138;14.332;2023-01-15T01:12:49;97011.06;;;7.89;91.59
75717;BME280;64333;50.138;14.332;2023-01-15T01:15:17;97006.66;;;7.91;89.11
75717;BME280;64333;50.138;14.332;2023-01-15T01:17:43;96998.69;;;7.95;90.40
75717;BME280;64333;50.138;14.332;2023-01-15T01:20:08;97012.47;;;7.94;90.02
75717;BME280;64333;50.138;14.332;2023-01-15T01:22:36;97006.34;;;7.97;89.86
75717;BME280;64333;50.138;14.332;2023-01-15T01:25:01;97004.91;;;8.07;88.89
75717;BME280;64333;50.138;14.332;2023-01-15T01:27:27;97003.09;;;8.09;88.11
75717;BME280;64333;50.138;14.332;2023-01-15T01:29:52;96998.63;;;8.12;88.64
75717;BME280;64333;50.138;14.332;2023-01-15T01:32:17;96978.13;;;8.11;88.60
75717;BME280;64333;50.138;14.332;2023-01-15T01:34:43;96974.25;;;8.19;87.55
75717;BME280;64333;50.138;14.332;2023-01-15T01:37:08;96960.94;;;8.27;87.80
75717;BME280;64333;50.138;14.332;2023-01-15T01:39:33;96948.84;;;8.29;88.37
75717;BME280;64333;50.138;14.332;2023-01-15T01:41:59;96945.06;;;8.20;87.94
75717;BME280;64333;50.138;14.332;2023-01-15T01:47:04;96938.56;;;8.29;88.64
75717;BME280;64333;50.138;14.332;2023-01-15T01:49:31;96931.28;;;8.21;89.35
75717;BME280;64333;50.138;14.332;2023-01-15T01:52:01;96956.78;;;8.40;87.65
75717;BME280;64333;50.138;14.332;2023-01-15T01:54:29;96929.78;;;8.47;87.30
75717;BME280;64333;50.138;14.332;2023-01-15T01:56:57;96944.50;;;8.45;86.45
75717;BME280;64333;50.138;14.332;2023-01-15T01:59:24;96944.88;;;8.53;86.66
75717;BME280;64333;50.138;14.332;2023-01-15T02:01:50;96943.72;;;8.58;85.49
75717;BME280;64333;50.138;14.332;2023-01-15T02:04:17;96940.50;;;8.55;86.04
75717;BME280;64333;50.138;14.332;2023-01-15T02:06:43;96939.72;;;8.53;85.91
75717;BME280;64333;50.138;14.332;2023-01-15T02:09:09;96936.44;;;8.51;86.65
75717;BME280;64333;50.138;14.332;2023-01-15T02:11:35;96938.84;;;8.54;85.90
75717;BME280;64333;50.138;14.332;2023-01-15T02:25:04;96917.03;;;8.89;83.27
75717;BME280;64333;50.138;14.332;2023-01-15T02:27:35;96920.25;;;8.92;83.03
75717;BME280;64333;50.138;14.332;2023-01-15T02:30:23;96916.69;;;8.95;83.10
75717;BME280;64333;50.138;14.332;2023-01-15T02:32:53;96895.50;;;8.90;84.38
75717;BME280;64333;50.138;14.332;2023-01-15T02:35:31;96888.06;;;8.85;84.00
75717;BME280;64333;50.138;14.332;2023-01-15T02:38:01;96902.22;;;8.78;86.75
75717;BME280;64333;50.138;14.332;2023-01-15T02:40:28;96887.41;;;8.68;89.28
75717;BME280;64333;50.138;14.332;2023-01-15T02:42:56;96912.72;;;8.60;90.30
75717;BME280;64333;50.138;14.332;2023-01-15T02:45:26;96875.97;;;8.58;90.34
75717;BME280;64333;50.138;14.332;2023-01-15T02:47:54;96885.47;;;8.57;91.09
75717;BME280;64333;50.138;14.332;2023-01-15T02:50:29;96884.63;;;8.71;89.42
75717;BME280;64333;50.138;14.332;2023-01-15T02:53:00;96898.44;;;8.84;87.73
75717;BME280;64333;50.138;14.332;2023-01-15T02:55:33;96901.66;;;8.87;87.58
75717;BME280;64333;50.138;14.332;2023-01-15T02:58:03;96925.22;;;8.95;86.32
75717;BME280;64333;50.138;14.332;2023-01-15T03:00:33;96887.59;;;8.93;87.26
75717;BME280;64333;50.138;14.332;2023-01-15T03:03:13;96884.22;;;8.92;87.80
75717;BME280;64333;50.138;14.332;2023-01-15T03:05:49;96873.06;;;8.92;87.14
75717;BME280;64333;50.138;14.332;2023-01-15T03:08:16;96865.25;;;8.79;88.19
75717;BME280;64333;50.138;14.332;2023-01-15T03:10:47;96879.41;;;8.86;88.02
75717;BME280;64333;50.138;14.332;2023-01-15T03:16:21;96882.44;;;8.93;87.35
75717;BME280;64333;50.138;14.332;2023-01-15T03:19:23;96893.84;;;8.89;87.63
75717;BME280;64333;50.138;14.332;2023-01-15T03:21:52;96861.47;;;8.99;86.88
75717;BME280;64333;50.138;14.332;2023-01-15T03:24:32;96857.81;;;8.89;86.77
75717;BME280;64333;50.138;14.332;2023-01-15T03:27:01;96841.25;;;8.79;90.10
75717;BME280;64333;50.138;14.332;2023-01-15T03:29:30;96841.53;;;8.74;90.21
75717;BME280;64333;50.138;14.332;2023-01-15T03:31:58;96841.59;;;8.73;90.92
75717;BME280;64333;50.138;14.332;2023-01-15T03:34:26;96844.38;;;8.84;88.16
75717;BME280;64333;50.138;14.332;2023-01-15T03:36:55;96831.22;;;8.88;87.96
75717;BME280;64333;50.138;14.332;2023-01-15T03:39:21;96833.63;;;8.91;86.41
75717;BME280;64333;50.138;14.332;2023-01-15T03:41:59;96827.84;;;9.02;85.78
75717;BME280;64333;50.138;14.332;2023-01-15T03:44:51;96810.53;;;9.04;83.83
75717;BME280;64333;50.138;14.332;2023-01-15T03:52:31;96842.97;;;9.20;80.94
75717;BME280;64333;50.138;14.332;2023-01-15T03:55:12;96810.97;;;9.24;80.50
75717;BME280;64333;50.138;14.332;2023-01-15T03:57:52;96808.28;;;9.26;79.88
75717;BME280;64333;50.138;14.332;2023-01-15T04:02:50;96811.13;;;9.35;77.23
75717;BME280;64333;50.138;14.332;2023-01-15T04:05:17;96801.97;;;9.44;77.49
75717;BME280;64333;50.138;14.332;2023-01-15T04:07:43;96820.94;;;9.43;77.42
75717;BME280;64333;50.138;14.332;2023-01-15T04:10:10;96802.72;;;9.46;76.92
75717;BME280;64333;50.138;14.332;2023-01-15T04:12:36;96792.84;;;9.52;76.22
75717;BME280;64333;50.138;14.332;2023-01-15T04:15:01;96785.94;;;9.53;76.25
75717;BME280;64333;50.138;14.332;2023-01-15T04:17:27;96793.88;;;9.50;76.63
75717;BME280;64333;50.138;14.332;2023-01-15T04:19:52;96793.66;;;9.53;75.42
75717;BME280;64333;50.138;14.332;2023-01-15T04:22:17;96789.34;;;9.53;75.83
75717;BME280;64333;50.138;14.332;2023-01-15T04:24:43;96778.19;;;9.53;76.36
75717;BME280;64333;50.138;14.332;2023-01-15T04:27:08;96782.16;;;9.58;76.10
75717;BME280;64333;50.138;14.332;2023-01-15T04:29:33;96771.72;;;9.60;76.33
75717;BME280;64333;50.138;14.332;2023-01-15T04:31:59;96762.34;;;9.59;76.14
75717;BME280;64333;50.138;14.332;2023-01-15T04:34:26;96772.47;;;9.62;76.31
75717;BME280;64333;50.138;14.332;2023-01-15T04:36:51;96759.06;;;9.57;76.63
75717;BME280;64333;50.138;14.332;2023-01-15T04:39:17;96767.41;;;9.60;76.44
75717;BME280;64333;50.138;14.332;2023-01-15T04:41:42;96764.94;;;9.59;75.22
75717;BME280;64333;50.138;14.332;2023-01-15T04:44:26;96775.44;;;9.56;75.18
75717;BME280;64333;50.138;14.332;2023-01-15T04:46:54;96761.09;;;9.52;76.43
75717;BME280;64333;50.138;14.332;2023-01-15T04:49:19;96757.16;;;9.46;75.91
75717;BME280;64333;50.138;14.332;2023-01-15T04:51:45;96754.03;;;9.41;76.67
75717;BME280;64333;50.138;14.332;2023-01-15T04:54:12;96752.88;;;9.33;77.74
75717;BME280;64333;50.138;14.332;2023-01-15T04:56:41;96753.75;;;9.19;78.66
75717;BME280;64333;50.138;14.332;2023-01-15T04:59:07;96752.16;;;9.04;80.97
75717;BME280;64333;50.138;14.332;2023-01-15T05:01:33;96756.09;;;8.96;81.77
75717;BME280;64333;50.138;14.332;2023-01-15T05:03:58;96735.16;;;8.88;81.02
75717;BME280;64333;50.138;14.332;2023-01-15T05:06:24;96742.97;;;8.86;80.59
75717;BME280;64333;50.138;14.332;2023-01-15T05:08:50;96743.34;;;8.80;81.17
75717;BME280;64333;50.138;14.332;2023-01-15T05:11:15;96741.59;;;8.81;81.39
75717;BME280;64333;50.138;14.332;2023-01-15T05:13:40;96745.91;;;8.80;81.07
75717;BME280;64333;50.138;14.332;2023-01-15T05:16:14;96730.25;;;8.83;81.38
75717;BME280;64333;50.138;14.332;2023-01-15T05:18:41;96727.97;;;8.79;81.41
75717;BME280;64333;50.138;14.332;2023-01-15T05:21:13;96742.50;;;8.80;81.82
75717;BME280;64333;50.138;14.332;2023-01-15T05:23:39;96734.78;;;8.80;81.66
75717;BME280;64333;50.138;14.332;2023-01-15T05:26:04;96743.06;;;8.85;81.08
75717;BME280;64333;50.138;14.332;2023-01-15T05:28:30;96745.72;;;8.83;80.20
75717;BME280;64333;50.138;14.332;2023-01-15T05:30:55;96740.94;;;8.91;79.91
75717;BME280;64333;50.138;14.332;2023-01-15T05:33:20;96760.41;;;8.95;79.11
75717;BME280;64333;50.138;14.332;2023-01-15T05:35:46;96747.25;;;9.00;78.91
75717;BME280;64333;50.138;14.332;2023-01-15T05:38:11;96735.13;;;9.02;78.69
75717;BME280;64333;50.138;14.332;2023-01-15T05:40:36;96724.19;;;8.98;77.70
75717;BME280;64333;50.138;14.332;2023-01-15T05:43:02;96731.88;;;9.12;78.03
75717;BME280;64333;50.138;14.332;2023-01-15T05:45:27;96751.47;;;9.15;77.66
75717;BME280;64333;50.138;14.332;2023-01-15T05:47:53;96725.50;;;9.18;77.79
75717;BME280;64333;50.138;14.332;2023-01-15T05:50:18;96730.88;;;9.15;77.41
75717;BME280;64333;50.138;14.332;2023-01-15T05:52:43;96723.47;;;9.23;76.96
75717;BME280;64333;50.138;14.332;2023-01-15T05:55:09;96741.41;;;9.24;77.29
75717;BME280;64333;50.138;14.332;2023-01-15T05:57:34;96728.41;;;9.26;77.27
75717;BME280;64333;50.138;14.332;2023-01-15T06:00:00;96717.00;;;9.30;76.68
75717;BME280;64333;50.138;14.332;2023-01-15T06:02:25;96716.38;;;9.26;75.93
75717;BME280;64333;50.138;14.332;2023-01-15T06:04:51;96721.16;;;9.32;76.23
75717;BME280;64333;50.138;14.332;2023-01-15T06:07:16;96717.72;;;9.32;75.61
75717;BME280;64333;50.138;14.332;2023-01-15T06:09:43;96717.94;;;9.29;75.53
75717;BME280;64333;50.138;14.332;2023-01-15T06:12:08;96718.56;;;9.32;76.52
75717;BME280;64333;50.138;14.332;2023-01-15T06:14:34;96718.94;;;9.26;75.49
75717;BME280;64333;50.138;14.332;2023-01-15T06:16:59;96751.22;;;9.32;76.04
75717;BME280;64333;50.138;14.332;2023-01-15T06:19:24;96705.78;;;9.31;76.14
75717;BME280;64333;50.138;14.332;2023-01-15T06:21:50;96710.50;;;9.24;75.46
75717;BME280;64333;50.138;14.332;2023-01-15T06:24:15;96718.88;;;9.28;76.19
75717;BME280;64333;50.138;14.332;2023-01-15T06:26:42;96702.66;;;9.26;75.86
75717;BME280;64333;50.138;14.332;2023-01-15T06:29:07;96710.22;;;9.29;75.60
75717;BME280;64333;50.138;14.332;2023-01-15T06:31:32;96707.63;;;9.29;75.43
75717;BME280;64333;50.138;14.332;2023-01-15T06:33:58;96710.94;;;9.31;75.79
75717;BME280;64333;50.138;14.332;2023-01-15T06:36:27;96711.75;;;9.31;75.43
75717;BME280;64333;50.138;14.332;2023-01-15T06:38:53;96722.78;;;9.33;75.65
75717;BME280;64333;50.138;14.332;2023-01-15T06:41:23;96696.00;;;9.36;75.40
75717;BME280;64333;50.138;14.332;2023-01-15T06:44:12;96689.00;;;9.38;75.45
75717;BME280;64333;50.138;14.332;2023-01-15T06:46:57;96706.00;;;9.40;74.93
75717;BME280;64333;50.138;14.332;2023-01-15T06:49:41;96694.25;;;9.36;75.74
75717;BME280;64333;50.138;14.332;2023-01-15T06:52:06;96674.69;;;9.34;75.07
75717;BME280;64333;50.138;14.332;2023-01-15T06:54:33;96691.56;;;9.38;76.14
75717;BME280;64333;50.138;14.332;2023-01-15T06:56:59;96694.88;;;9.40;76.04
75717;BME280;64333;50.138;14.332;2023-01-15T06:59:24;96676.94;;;9.38;75.24
75717;BME280;64333;50.138;14.332;2023-01-15T07:01:49;96687.25;;;9.38;76.14
75717;BME280;64333;50.138;14.332;2023-01-15T07:04:15;96710.75;;;9.34;75.67
75717;BME280;64333;50.138;14.332;2023-01-15T07:06:40;96725.78;;;9.40;76.33
75717;BME280;64333;50.138;14.332;2023-01-15T07:09:05;96704.38;;;9.39;76.01
75717;BME280;64333;50.138;14.332;2023-01-15T07:11:31;96688.28;;;9.36;76.40
75717;BME280;64333;50.138;14.332;2023-01-15T07:13:56;96701.34;;;9.33;76.52
75717;BME280;64333;50.138;14.332;2023-01-15T07:16:32;96689.84;;;9.38;76.14
75717;BME280;64333;50.138;14.332;2023-01-15T07:18:57;96698.59;;;9.36;76.27
75717;BME280;64333;50.138;14.332;2023-01-15T07:21:23;96685.69;;;9.36;76.43
75717;BME280;64333;50.138;14.332;2023-01-15T07:23:48;96722.31;;;9.41;76.36
75717;BME280;64333;50.138;14.332;2023-01-15T07:26:13;96709.59;;;9.38;76.85
75717;BME280;64333;50.138;14.332;2023-01-15T07:28:39;96702.81;;;9.37;75.73
75717;BME280;64333;50.138;14.332;2023-01-15T07:31:04;96705.19;;;9.40;75.88
75717;BME280;64333;50.138;14.332;2023-01-15T07:33:30;96696.53;;;9.41;76.38
75717;BME280;64333;50.138;14.332;2023-01-15T07:35:55;96693.97;;;9.41;76.52
75717;BME280;64333;50.138;14.332;2023-01-15T07:38:21;96698.91;;;9.44;75.96
75717;BME280;64333;50.138;14.332;2023-01-15T07:40:47;96691.19;;;9.44;76.27
75717;BME280;64333;50.138;14.332;2023-01-15T07:43:32;96675.50;;;9.47;75.85
75717;BME280;64333;50.138;14.332;2023-01-15T07:46:16;96673.69;;;9.49;74.80
75717;BME280;64333;50.138;14.332;2023-01-15T07:49:10;96677.69;;;9.53;75.32
75717;BME280;64333;50.138;14.332;2023-01-15T07:51:54;96671.63;;;9.54;74.39
75717;BME280;64333;50.138;14.332;2023-01-15T07:54:19;96660.91;;;9.60;73.88
75717;BME280;64333;50.138;14.332;2023-01-15T07:56:44;96656.19;;;9.66;73.76
75717;BME280;64333;50.138;14.332;2023-01-15T07:59:10;96665.88;;;9.63;74.55
75717;BME280;64333;50.138;14.332;2023-01-15T08:01:35;96651.03;;;9.66;73.50
75717;BME280;64333;50.138;14.332;2023-01-15T08:04:01;96656.59;;;9.73;73.11
75717;BME280;64333;50.138;14.332;2023-01-15T08:06:26;96657.91;;;9.66;73.64
75717;BME280;64333;50.138;14.332;2023-01-15T08:08:51;96664.84;;;9.78;72.58
75717;BME280;64333;50.138;14.332;2023-01-15T08:11:17;96668.13;;;9.80;72.51
75717;BME280;64333;50.138;14.332;2023-01-15T08:14:00;96651.97;;;9.78;72.22
75717;BME280;64333;50.138;14.332;2023-01-15T08:16:44;96695.47;;;9.82;72.48
75717;BME280;64333;50.138;14.332;2023-01-15T08:19:10;96660.75;;;9.88;72.07
75717;BME280;64333;50.138;14.332;2023-01-15T08:21:36;96665.69;;;9.91;72.23
75717;BME280;64333;50.138;14.332;2023-01-15T08:24:01;96674.66;;;9.98;71.84
75717;BME280;64333;50.138;14.332;2023-01-15T08:26:26;96670.13;;;10.01;71.70
75717;BME280;64333;50.138;14.332;2023-01-15T08:28:52;96692.97;;;10.07;71.16
75717;BME280;64333;50.138;14.332;2023-01-15T08:31:17;96679.03;;;10.10;71.09
75717;BME280;64333;50.138;14.332;2023-01-15T08:33:43;96672.75;;;10.14;71.80
75717;BME280;64333;50.138;14.332;2023-01-15T08:36:08;96666.25;;;10.21;70.17
75717;BME280;64333;50.138;14.332;2023-01-15T08:38:33;96665.09;;;10.25;71.09
75717;BME280;64333;50.138;14.332;2023-01-15T08:40:59;96656.41;;;10.26;69.70
75717;BME280;64333;50.138;14.332;2023-01-15T08:43:25;96645.69;;;10.32;69.64
75717;BME280;64333;50.138;14.332;2023-01-15T08:45:51;96660.97;;;10.35;69.92
75717;BME280;64333;50.138;14.332;2023-01-15T08:48:17;96675.50;;;10.36;69.91
75717;BME280;64333;50.138;14.332;2023-01-15T08:50:42;96660.75;;;10.38;69.95
75717;BME280;64333;50.138;14.332;2023-01-15T08:53:08;96664.16;;;10.38;70.55
75717;BME280;64333;50.138;14.332;2023-01-15T08:55:33;96643.09;;;10.32;70.04
75717;BME280;64333;50.138;14.332;2023-01-15T08:57:58;96666.13;;;10.35;70.11
75717;BME280;64333;50.138;14.332;2023-01-15T09:00:24;96667.53;;;10.39;70.08
75717;BME280;64333;50.138;14.332;2023-01-15T09:02:49;96662.56;;;10.48;70.44
75717;BME280;64333;50.138;14.332;2023-01-15T09:05:15;96651.94;;;10.53;69.96
75717;BME280;64333;50.138;14.332;2023-01-15T09:07:40;96653.69;;;10.52;70.12
75717;BME280;64333;50.138;14.332;2023-01-15T09:10:07;96651.84;;;10.54;70.27
75717;BME280;64333;50.138;14.332;2023-01-15T09:12:33;96664.03;;;10.52;70.30
75717;BME280;64333;50.138;14.332;2023-01-15T09:14:59;96684.59;;;10.54;70.22
75717;BME280;64333;50.138;14.332;2023-01-15T09:17:25;96649.25;;;10.54;69.95
75717;BME280;64333;50.138;14.332;2023-01-15T09:19:51;96639.63;;;10.56;68.95
75717;BME280;64333;50.138;14.332;2023-01-15T09:22:16;96654.22;;;10.57;69.60
75717;BME280;64333;50.138;14.332;2023-01-15T09:24:42;96664.41;;;10.59;69.64
75717;BME280;64333;50.138;14.332;2023-01-15T09:27:10;96663.69;;;10.57;69.07
75717;BME280;64333;50.138;14.332;2023-01-15T09:29:35;96666.19;;;10.58;69.25
75717;BME280;64333;50.138;14.332;2023-01-15T09:32:01;96662.06;;;10.56;68.91
75717;BME280;64333;50.138;14.332;2023-01-15T09:34:26;96661.13;;;10.57;69.55
75717;BME280;64333;50.138;14.332;2023-01-15T09:36:52;96654.31;;;10.56;69.34
75717;BME280;64333;50.138;14.332;2023-01-15T09:39:17;96650.78;;;10.57;69.04
75717;BME280;64333;50.138;14.332;2023-01-15T09:50:22;96645.84;;;10.54;69.47
75717;BME280;64333;50.138;14.332;2023-01-15T09:57:49;96651.72;;;10.56;69.68
75717;BME280;64333;50.138;14.332;2023-01-15T10:00:21;96638.59;;;10.59;68.72
75717;BME280;64333;50.138;14.332;2023-01-15T10:03:10;96654.09;;;10.59;69.90
75717;BME280;64333;50.138;14.332;2023-01-15T10:08:15;96651.03;;;10.54;70.26
75717;BME280;64333;50.138;14.332;2023-01-15T10:10:47;96644.19;;;10.53;69.53
75717;BME280;64333;50.138;14.332;2023-01-15T10:13:20;96644.78;;;10.56;69.83
75717;BME280;64333;50.138;14.332;2023-01-15T10:15:49;96642.53;;;10.52;69.53
75717;BME280;64333;50.138;14.332;2023-01-15T10:18:19;96647.50;;;10.55;69.57
75717;BME280;64333;50.138;14.332;2023-01-15T10:23:59;96648.97;;;10.46;70.53
75717;BME280;64333;50.138;14.332;2023-01-15T10:26:47;96654.53;;;10.40;72.10
75717;BME280;64333;50.138;14.332;2023-01-15T10:29:42;96663.63;;;10.33;73.35
75717;BME280;64333;50.138;14.332;2023-01-15T10:40:53;96656.94;;;9.81;80.09
75717;BME280;64333;50.138;14.332;2023-01-15T10:46:16;96668.03;;;9.81;79.25
75717;BME280;64333;50.138;14.332;2023-01-15T10:48:49;96670.31;;;9.86;78.44
75717;BME280;64333;50.138;14.332;2023-01-15T10:51:23;96672.78;;;10.00;77.34
75717;BME280;64333;50.138;14.332;2023-01-15T10:59:17;96670.22;;;10.50;73.96
75717;BME280;64333;50.138;14.332;2023-01-15T11:01:46;96671.13;;;10.61;72.79
75717;BME280;64333;50.138;14.332;2023-01-15T11:04:13;96676.81;;;10.66;72.43
75717;BME280;64333;50.138;14.332;2023-01-15T11:06:39;96687.75;;;10.70;72.05
75717;BME280;64333;50.138;14.332;2023-01-15T11:09:04;96680.50;;;10.75;72.54
75717;BME280;64333;50.138;14.332;2023-01-15T11:11:35;96669.63;;;10.82;71.55
75717;BME280;64333;50.138;14.332;2023-01-15T11:14:51;96682.00;;;10.89;71.77
75717;BME280;64333;50.138;14.332;2023-01-15T11:17:40;96688.22;;;10.87;71.31
75717;BME280;64333;50.138;14.332;2023-01-15T11:20:42;96674.59;;;10.85;72.92
75717;BME280;64333;50.138;14.332;2023-01-15T11:23:11;96697.41;;;10.78;73.68
75717;BME280;64333;50.138;14.332;2023-01-15T11:25:46;96695.53;;;10.57;76.29
75717;BME280;64333;50.138;14.332;2023-01-15T11:28:12;96692.94;;;10.45;77.03
75717;BME280;64333;50.138;14.332;2023-01-15T11:30:52;96703.81;;;10.37;78.57
75717;BME280;64333;50.138;14.332;2023-01-15T11:33:26;96704.94;;;10.33;79.49
75717;BME280;64333;50.138;14.332;2023-01-15T11:35:54;96714.44;;;10.08;81.11
75717;BME280;64333;50.138;14.332;2023-01-15T11:38:23;96713.66;;;9.81;83.15
75717;BME280;64333;50.138;14.332;2023-01-15T11:40:57;96722.88;;;9.58;83.23
75717;BME280;64333;50.138;14.332;2023-01-15T11:43:25;96731.16;;;9.37;84.77
75717;BME280;64333;50.138;14.332;2023-01-15T11:46:44;96747.63;;;9.08;85.59
75717;BME280;64333;50.138;14.332;2023-01-15T11:49:28;96739.53;;;9.00;86.92
75717;BME280;64333;50.138;14.332;2023-01-15T11:52:18;96748.72;;;9.04;85.99
75717;BME280;64333;50.138;14.332;2023-01-15T11:54:48;96753.53;;;8.96;85.72
75717;BME280;64333;50.138;14.332;2023-01-15T11:57:30;96769.00;;;8.82;87.04
75717;BME280;64333;50.138;14.332;2023-01-15T11:59:56;96758.78;;;8.80;86.66
75717;BME280;64333;50.138;14.332;2023-01-15T12:02:36;96771.47;;;8.83;85.62
75717;BME280;64333;50.138;14.332;2023-01-15T12:05:27;96771.84;;;8.77;86.59
75717;BME280;64333;50.138;14.332;2023-01-15T12:07:57;96781.69;;;8.71;85.89
75717;BME280;64333;50.138;14.332;2023-01-15T12:10:27;96772.88;;;8.61;84.39
75717;BME280;64333;50.138;14.332;2023-01-15T12:15:55;96780.97;;;8.55;83.82
75717;BME280;64333;50.138;14.332;2023-01-15T12:26:30;96822.56;;;8.33;81.15
75717;BME280;64333;50.138;14.332;2023-01-15T12:31:36;96813.94;;;8.19;80.97
75717;BME280;64333;50.138;14.332;2023-01-15T12:34:28;96812.88;;;8.23;81.65
75717;BME280;64333;50.138;14.332;2023-01-15T12:36:58;96824.34;;;8.17;81.92
75717;BME280;64333;50.138;14.332;2023-01-15T12:39:39;96845.50;;;8.07;81.21
75717;BME280;64333;50.138;14.332;2023-01-15T12:42:11;96845.28;;;7.96;81.49
75717;BME280;64333;50.138;14.332;2023-01-15T12:45:01;96836.88;;;8.08;81.70
75717;BME280;64333;50.138;14.332;2023-01-15T12:50:40;96859.56;;;8.15;81.46
75717;BME280;64333;50.138;14.332;2023-01-15T12:56:31;96847.13;;;8.23;81.55
75717;BME280;64333;50.138;14.332;2023-01-15T13:04:17;96865.66;;;8.44;77.06
75717;BME280;64333;50.138;14.332;2023-01-15T13:06:50;96880.00;;;8.48;75.11
75717;BME280;64333;50.138;14.332;2023-01-15T13:09:43;96886.13;;;8.31;75.16
75717;BME280;64333;50.138;14.332;2023-01-15T13:12:13;96894.09;;;8.27;76.15
75717;BME280;64333;50.138;14.332;2023-01-15T13:14:40;96889.13;;;8.24;75.93
75717;BME280;64333;50.138;14.332;2023-01-15T13:35:47;96918.59;;;8.03;76.56
75717;BME280;64333;50.138;14.332;2023-01-15T13:38:20;96926.56;;;7.83;76.56
75717;BME280;64333;50.138;14.332;2023-01-15T13:40:50;96930.38;;;7.76;73.70
75717;BME280;64333;50.138;14.332;2023-01-15T13:43:40;96941.91;;;7.84;73.12
75717;BME280;64333;50.138;14.332;2023-01-15T13:46:09;96938.97;;;7.90;71.97
75717;BME280;64333;50.138;14.332;2023-01-15T13:48:44;96935.59;;;7.90;71.86
75717;BME280;64333;50.138;14.332;2023-01-15T13:51:30;96935.75;;;7.87;71.55
75717;BME280;64333;50.138;14.332;2023-01-15T13:53:58;96943.06;;;7.94;71.97
75717;BME280;64333;50.138;14.332;2023-01-15T13:56:28;96944.56;;;7.83;72.29
75717;BME280;64333;50.138;14.332;2023-01-15T13:58:58;96965.84;;;7.85;72.03
75717;BME280;64333;50.138;14.332;2023-01-15T14:01:34;96970.06;;;7.70;72.51
75717;BME280;64333;50.138;14.332;2023-01-15T14:06:49;96974.63;;;7.50;74.23
75717;BME280;64333;50.138;14.332;2023-01-15T14:31:25;97047.06;;;6.90;71.41
75717;BME280;64333;50.138;14.332;2023-01-15T14:34:12;97050.00;;;6.82;71.49
75717;BME280;64333;50.138;14.332;2023-01-15T14:36:54;97050.22;;;6.78;71.60
75717;BME280;64333;50.138;14.332;2023-01-15T14:42:22;97050.97;;;6.63;69.96
75717;BME280;64333;50.138;14.332;2023-01-15T14:47:49;97026.63;;;6.53;70.35
75717;BME280;64333;50.138;14.332;2023-01-15T14:52:51;97046.06;;;6.40;71.33
75717;BME280;64333;50.138;14.332;2023-01-15T14:55:19;97021.03;;;6.28;71.42
75717;BME280;64333;50.138;14.332;2023-01-15T14:57:54;97053.66;;;6.24;72.40
75717;BME280;64333;50.138;14.332;2023-01-15T15:00:21;97072.44;;;6.25;72.61
75717;BME280;64333;50.138;14.332;2023-01-15T15:02:48;97073.41;;;6.22;73.05
75717;BME280;64333;50.138;14.332;2023-01-15T15:05:17;97082.00;;;6.21;72.34
75717;BME280;64333;50.138;14.332;2023-01-15T15:07:45;97100.91;;;6.19;72.84
75717;BME280;64333;50.138;14.332;2023-01-15T15:10:26;97103.41;;;6.20;71.50
75717;BME280;64333;50.138;14.332;2023-01-15T15:13:01;97118.88;;;6.19;71.72
75717;BME280;64333;50.138;14.332;2023-01-15T15:15:45;97120.53;;;6.20;71.63
75717;BME280;64333;50.138;14.332;2023-01-15T15:18:27;97105.56;;;6.11;71.14
75717;BME280;64333;50.138;14.332;2023-01-15T15:21:12;97114.84;;;6.13;70.97
75717;BME280;64333;50.138;14.332;2023-01-15T15:26:28;97127.09;;;6.07;72.01
75717;BME280;64333;50.138;14.332;2023-01-15T15:29:15;97133.97;;;6.06;72.05
75717;BME280;64333;50.138;14.332;2023-01-15T15:31:46;97145.03;;;6.07;72.27
75717;BME280;64333;50.138;14.332;2023-01-15T15:34:27;97136.38;;;6.09;71.57